createdAt,value
2023-04-08T00:00:09.522Z,90.27
2023-04-08T00:02:43.195Z,89.78
2023-04-08T00:05:13.188Z,90.02
2023-04-08T00:07:41.478Z,91.18
2023-04-08T00:10:11.453Z,91.04
2023-04-08T00:12:39.801Z,90.68
2023-04-08T00:15:08.887Z,91.19
2023-04-08T00:17:37.381Z,91.55
2023-04-08T00:20:06.898Z,91.56
2023-04-08T00:22:37.505Z,91.73
2023-04-08T00:25:09.388Z,91.84
2023-04-08T00:27:37.817Z,91.82
2023-04-08T00:30:07.931Z,92.19
2023-04-08T00:32:36.481Z,91.94
2023-04-08T00:35:05.589Z,92.05
2023-04-08T00:37:34.597Z,92.01
2023-04-08T00:40:04.416Z,91.61
2023-04-08T00:42:32.814Z,91.58
2023-04-08T00:45:01.170Z,91.67
2023-04-08T00:47:29.618Z,91.67
2023-04-08T00:49:58.128Z,92.28
2023-04-08T00:52:26.472Z,92.63
2023-04-08T00:54:54.816Z,92.60
2023-04-08T00:57:24.579Z,92.00
2023-04-08T00:59:53.053Z,91.84
2023-04-08T01:02:33.043Z,91.99
2023-04-08T01:05:06.545Z,91.21
2023-04-08T01:07:38.846Z,91.11
2023-04-08T01:10:16.438Z,90.72
2023-04-08T01:12:59.558Z,90.49
2023-04-08T01:15:30.280Z,90.71
2023-04-08T01:18:01.726Z,90.64
2023-04-08T01:20:31.924Z,90.57
2023-04-08T01:23:12.282Z,90.61
2023-04-08T01:25:41.266Z,90.49
2023-04-08T01:28:16.351Z,90.24
2023-04-08T01:30:46.312Z,90.13
2023-04-08T01:33:18.798Z,89.73
2023-04-08T01:35:47.991Z,89.71
2023-04-08T01:38:19.600Z,89.75
2023-04-08T01:40:50.880Z,89.81
2023-04-08T01:43:21.280Z,89.67
2023-04-08T01:45:54.507Z,89.78
2023-04-08T01:48:24.130Z,89.77
2023-04-08T01:50:54.439Z,89.72
2023-04-08T01:53:23.392Z,89.84
2023-04-08T01:55:58.771Z,89.61
2023-04-08T01:58:34.249Z,89.17
2023-04-08T02:01:03.448Z,89.27
2023-04-08T02:03:32.841Z,89.19
2023-04-08T02:06:01.487Z,89.39
2023-04-08T02:08:29.734Z,89.33
2023-04-08T02:10:58.097Z,89.35
2023-04-08T02:13:27.928Z,89.52
2023-04-08T02:16:06.015Z,89.53
2023-04-08T02:18:38.846Z,89.42
2023-04-08T02:21:12.957Z,89.21
2023-04-08T02:23:42.739Z,89.20
2023-04-08T02:26:16.053Z,89.29
2023-04-08T02:28:46.184Z,89.33
2023-04-08T02:31:16.047Z,89.41
2023-04-08T02:33:47.877Z,89.38
2023-04-08T02:36:17.129Z,89.60
2023-04-08T02:38:49.911Z,89.61
2023-04-08T02:41:18.765Z,89.68
2023-04-08T02:43:48.400Z,89.83
2023-04-08T02:46:16.773Z,89.89
2023-04-08T02:48:45.243Z,90.12
2023-04-08T02:51:13.910Z,89.69
2023-04-08T02:53:42.254Z,89.53
2023-04-08T02:56:12.366Z,89.41
2023-04-08T02:58:40.772Z,89.55
2023-04-08T03:01:10.820Z,89.41
2023-04-08T03:03:39.394Z,89.82
2023-04-08T03:06:07.848Z,89.55
2023-04-08T03:08:36.143Z,89.56
2023-04-08T03:11:04.397Z,89.41
2023-04-08T03:13:32.799Z,89.71
2023-04-08T03:16:01.208Z,89.43
2023-04-08T03:18:31.247Z,89.39
2023-04-08T03:20:59.604Z,89.41
2023-04-08T03:23:27.978Z,89.40
2023-04-08T03:25:56.352Z,89.80
2023-04-08T03:28:24.630Z,90.04
2023-04-08T03:30:53.069Z,90.17
2023-04-08T03:33:21.357Z,90.54
2023-04-08T03:35:51.112Z,90.66
2023-04-08T03:38:19.359Z,90.86
2023-04-08T03:40:47.799Z,90.62
2023-04-08T03:43:16.563Z,90.63
2023-04-08T03:45:44.817Z,90.75
2023-04-08T03:48:13.116Z,90.70
2023-04-08T03:50:41.450Z,90.83
2023-04-08T03:53:12.876Z,91.01
2023-04-08T03:55:41.241Z,91.04
2023-04-08T03:58:09.538Z,90.98
2023-04-08T04:00:38.259Z,90.98
2023-04-08T04:03:06.787Z,90.89
2023-04-08T04:05:35.456Z,91.28
2023-04-08T04:08:03.858Z,91.60
2023-04-08T04:10:33.804Z,91.54
2023-04-08T04:13:02.174Z,91.20
2023-04-08T04:15:30.477Z,91.34
2023-04-08T04:17:58.868Z,91.41
2023-04-08T04:20:29.152Z,91.34
2023-04-08T04:22:57.530Z,91.16
2023-04-08T04:25:26.223Z,91.29
2023-04-08T04:27:55.889Z,91.28
2023-04-08T04:30:24.561Z,91.37
2023-04-08T04:32:52.950Z,91.48
2023-04-08T04:35:21.439Z,91.97
2023-04-08T04:37:51.862Z,92.43
2023-04-08T04:40:20.471Z,92.18
2023-04-08T04:42:48.782Z,92.10
2023-04-08T04:45:18.688Z,91.84
2023-04-08T04:47:47.058Z,91.61
2023-04-08T04:50:15.432Z,91.57
2023-04-08T04:52:43.806Z,91.81
2023-04-08T04:55:12.146Z,91.88
2023-04-08T04:57:40.571Z,91.83
2023-04-08T05:00:11.800Z,92.13
2023-04-08T05:02:41.675Z,92.10
2023-04-08T05:05:10.786Z,92.13
2023-04-08T05:07:39.797Z,92.04
2023-04-08T05:10:09.136Z,91.94
2023-04-08T05:12:38.746Z,92.10
2023-04-08T05:15:08.779Z,91.85
2023-04-08T05:17:37.139Z,91.96
2023-04-08T05:20:08.734Z,91.73
2023-04-08T05:22:37.062Z,91.56
2023-04-08T05:25:06.375Z,91.22
2023-04-08T05:27:35.000Z,91.15
2023-04-08T05:30:03.319Z,91.12
2023-04-08T05:32:31.723Z,90.85
2023-04-08T05:35:00.034Z,91.09
2023-04-08T05:37:29.736Z,91.06
2023-04-08T05:39:58.039Z,90.91
2023-04-08T05:42:27.099Z,90.74
2023-04-08T05:44:55.395Z,90.46
2023-04-08T05:47:23.709Z,90.04
2023-04-08T05:49:53.557Z,90.19
2023-04-08T05:52:22.435Z,90.14
2023-04-08T05:54:52.111Z,90.34
2023-04-08T05:57:20.589Z,90.32
2023-04-08T05:59:48.840Z,90.18
2023-04-08T06:02:17.246Z,90.10
2023-04-08T06:04:45.889Z,89.89
2023-04-08T06:07:14.354Z,90.09
2023-04-08T06:09:43.827Z,89.94
2023-04-08T06:12:15.193Z,90.03
2023-04-08T06:14:43.468Z,89.98
2023-04-08T06:17:11.855Z,89.94
2023-04-08T06:19:40.439Z,89.80
2023-04-08T06:22:08.787Z,89.94
2023-04-08T06:24:37.132Z,89.81
2023-04-08T06:27:05.549Z,89.65
2023-04-08T06:29:35.526Z,89.52
2023-04-08T06:32:03.901Z,89.67
2023-04-08T06:34:32.231Z,89.92
2023-04-08T06:37:00.821Z,89.54
2023-04-08T06:39:29.071Z,89.43
2023-04-08T06:41:58.140Z,89.51
2023-04-08T06:44:50.765Z,89.62
2023-04-08T06:47:19.164Z,89.71
2023-04-08T06:49:47.622Z,89.71
2023-04-08T06:52:15.961Z,89.79
2023-04-08T06:54:44.412Z,89.86
2023-04-08T06:57:12.752Z,89.91
2023-04-08T06:59:41.133Z,89.83
2023-04-08T07:02:10.870Z,90.02
2023-04-08T07:04:39.106Z,90.17
2023-04-08T07:07:07.461Z,90.21
2023-04-08T07:09:36.991Z,90.05
2023-04-08T07:12:05.515Z,90.31
2023-04-08T07:14:35.939Z,90.30
2023-04-08T07:17:04.471Z,90.06
2023-04-08T07:19:34.193Z,90.00
2023-04-08T07:22:02.667Z,90.11
2023-04-08T07:24:31.366Z,90.16
2023-04-08T07:27:03.049Z,90.01
2023-04-08T07:29:31.720Z,89.74
2023-04-08T07:32:00.668Z,89.19
2023-04-08T07:34:29.002Z,89.37
2023-04-08T07:36:58.696Z,90.45
2023-04-08T07:39:27.001Z,90.93
2023-04-08T07:41:55.324Z,91.18
2023-04-08T07:44:23.612Z,91.11
2023-04-08T07:46:52.014Z,91.42
2023-04-08T07:49:20.386Z,91.25
2023-04-08T07:51:48.656Z,91.42
2023-04-08T07:54:18.361Z,89.77
2023-04-08T07:56:46.776Z,90.67
2023-04-08T07:59:15.401Z,89.94
2023-04-08T08:01:43.823Z,89.64
2023-04-08T08:04:12.303Z,89.37
2023-04-08T08:06:40.895Z,89.51
2023-04-08T08:09:09.118Z,88.91
2023-04-08T08:11:38.796Z,87.42
2023-04-08T08:14:08.013Z,87.20
2023-04-08T08:16:36.546Z,86.64
2023-04-08T08:19:07.237Z,86.52
2023-04-08T08:21:39.385Z,86.55
2023-04-08T08:24:07.938Z,85.49
2023-04-08T08:26:38.395Z,85.38
2023-04-08T08:29:08.954Z,85.63
2023-04-08T08:31:37.283Z,84.85
2023-04-08T08:34:05.901Z,84.56
2023-04-08T08:36:34.772Z,84.16
2023-04-08T08:39:03.659Z,83.88
2023-04-08T08:41:36.577Z,81.88
2023-04-08T08:44:08.298Z,81.49
2023-04-08T08:46:36.821Z,81.11
2023-04-08T08:49:05.938Z,81.00
2023-04-08T08:51:34.356Z,81.26
2023-04-08T08:54:04.749Z,79.72
2023-04-08T08:56:35.048Z,78.38
2023-04-08T08:59:03.366Z,77.91
2023-04-08T09:01:35.849Z,77.97
2023-04-08T09:04:17.134Z,76.40
2023-04-08T09:06:47.735Z,75.96
2023-04-08T09:09:16.256Z,76.53
2023-04-08T09:11:46.313Z,75.34
2023-04-08T09:14:22.561Z,71.08
2023-04-08T09:16:53.047Z,71.20
2023-04-08T09:19:21.679Z,68.80
2023-04-08T09:22:08.368Z,68.88
2023-04-08T09:24:38.085Z,66.56
2023-04-08T09:27:06.825Z,68.89
2023-04-08T09:29:38.257Z,65.30
2023-04-08T09:32:08.959Z,67.66
2023-04-08T09:34:37.677Z,66.69
2023-04-08T09:37:05.998Z,63.90
2023-04-08T09:39:34.267Z,65.78
2023-04-08T09:42:10.597Z,66.44
2023-04-08T09:44:39.884Z,65.19
2023-04-08T09:47:16.255Z,65.21
2023-04-08T09:49:51.217Z,63.95
2023-04-08T09:52:26.252Z,61.57
2023-04-08T09:55:01.515Z,60.93
2023-04-08T09:57:41.646Z,61.73
2023-04-08T10:00:14.524Z,59.70
2023-04-08T10:02:56.686Z,59.38
2023-04-08T10:05:26.667Z,58.77
2023-04-08T10:07:57.110Z,59.98
2023-04-08T10:10:27.129Z,57.75
2023-04-08T10:12:55.813Z,56.67
2023-04-08T10:15:27.161Z,58.34
2023-04-08T10:17:58.311Z,57.98
2023-04-08T10:20:46.831Z,54.22
2023-04-08T10:23:16.862Z,53.73
2023-04-08T10:25:48.047Z,53.27
2023-04-08T10:28:27.241Z,56.19
2023-04-08T10:30:57.489Z,55.88
2023-04-08T10:33:36.561Z,55.34
2023-04-08T10:36:12.623Z,53.97
2023-04-08T10:38:42.607Z,52.63
2023-04-08T10:41:14.669Z,53.70
2023-04-08T10:43:44.106Z,51.24
2023-04-08T10:46:12.888Z,50.27
2023-04-08T10:48:42.746Z,51.75
2023-04-08T10:51:12.146Z,53.44
2023-04-08T10:53:41.211Z,53.88
2023-04-08T10:56:13.328Z,50.63
2023-04-08T10:58:50.545Z,55.02
2023-04-08T11:01:19.438Z,53.38
2023-04-08T11:03:49.798Z,54.10
2023-04-08T11:06:19.544Z,54.26
2023-04-08T11:08:48.181Z,55.37
2023-04-08T11:11:16.636Z,52.88
2023-04-08T11:13:53.260Z,54.02
2023-04-08T11:16:23.428Z,56.09
2023-04-08T11:18:55.543Z,56.97
2023-04-08T11:21:29.096Z,54.54
2023-04-08T11:23:57.701Z,57.00
2023-04-08T11:26:27.593Z,58.80
2023-04-08T11:28:57.545Z,58.94
2023-04-08T11:31:26.205Z,60.17
2023-04-08T11:33:56.764Z,57.43
2023-04-08T11:36:26.000Z,54.60
2023-04-08T11:38:55.958Z,55.59
2023-04-08T11:41:24.362Z,55.13
2023-04-08T11:43:54.376Z,53.01
2023-04-08T11:46:23.201Z,52.13
2023-04-08T11:49:10.294Z,50.43
2023-04-08T11:51:56.391Z,51.47
2023-04-08T11:54:29.003Z,49.40
2023-04-08T11:56:58.241Z,47.52
2023-04-08T11:59:28.979Z,46.42
2023-04-08T12:01:58.041Z,44.67
2023-04-08T12:04:28.179Z,47.02
2023-04-08T12:06:58.362Z,46.23
2023-04-08T12:09:27.455Z,48.67
2023-04-08T12:11:56.644Z,47.25
2023-04-08T12:14:27.697Z,47.10
2023-04-08T12:16:56.861Z,48.56
2023-04-08T12:19:25.264Z,50.10
2023-04-08T12:21:54.893Z,49.26
2023-04-08T12:24:23.138Z,49.32
2023-04-08T12:26:51.492Z,49.04
2023-04-08T12:29:19.804Z,48.72
2023-04-08T12:31:48.147Z,47.21
2023-04-08T12:34:16.810Z,47.06
2023-04-08T12:36:46.081Z,46.45
2023-04-08T12:39:15.785Z,46.70
2023-04-08T12:41:44.126Z,47.37
2023-04-08T12:44:12.719Z,47.11
2023-04-08T12:46:41.199Z,47.18
2023-04-08T12:49:09.875Z,48.87
2023-04-08T12:51:38.260Z,44.02
2023-04-08T12:54:06.699Z,44.49
2023-04-08T12:56:36.492Z,45.40
2023-04-08T12:59:04.838Z,42.97
2023-04-08T13:01:33.200Z,42.62
2023-04-08T13:04:01.634Z,43.80
2023-04-08T13:06:30.058Z,43.20
2023-04-08T13:08:58.343Z,42.99
2023-04-08T13:11:27.080Z,44.25
2023-04-08T13:13:56.804Z,44.43
2023-04-08T13:16:25.193Z,46.49
2023-04-08T13:18:53.715Z,45.01
2023-04-08T13:21:22.155Z,45.44
2023-04-08T13:23:50.578Z,46.25
2023-04-08T13:26:18.961Z,50.49
2023-04-08T13:28:56.736Z,46.06
2023-04-08T13:31:27.350Z,44.96
2023-04-08T13:33:58.190Z,43.25
2023-04-08T13:36:28.899Z,44.25
2023-04-08T13:38:57.538Z,44.48
2023-04-08T13:41:28.047Z,46.96
2023-04-08T13:43:56.694Z,45.67
2023-04-08T13:46:26.378Z,43.72
2023-04-08T13:48:54.881Z,43.01
2023-04-08T13:51:23.274Z,46.22
2023-04-08T13:53:51.984Z,45.48
2023-04-08T13:56:21.028Z,43.26
2023-04-08T13:58:56.493Z,42.82
2023-04-08T14:01:27.046Z,43.00
2023-04-08T14:03:55.663Z,42.26
2023-04-08T14:06:24.028Z,40.50
2023-04-08T14:08:52.473Z,40.21
2023-04-08T14:11:21.326Z,40.06
2023-04-08T14:13:49.730Z,40.25
2023-04-08T14:16:18.137Z,39.21
2023-04-08T14:18:47.922Z,38.79
2023-04-08T14:21:18.171Z,38.58
2023-04-08T14:23:46.732Z,37.63
2023-04-08T14:26:15.057Z,38.07
2023-04-08T14:28:43.425Z,38.19
2023-04-08T14:31:12.537Z,36.85
2023-04-08T14:33:42.157Z,38.06
2023-04-08T14:36:12.088Z,37.06
2023-04-08T14:38:40.485Z,38.80
2023-04-08T14:41:08.806Z,37.98
2023-04-08T14:43:37.102Z,39.32
2023-04-08T14:46:05.540Z,39.71
2023-04-08T14:48:33.952Z,39.34
2023-04-08T14:51:02.456Z,38.95
2023-04-08T14:53:32.258Z,37.64
2023-04-08T14:56:00.870Z,37.66
2023-04-08T14:58:29.293Z,38.70
2023-04-08T15:00:57.644Z,39.41
2023-04-08T15:03:26.030Z,40.00
2023-04-08T15:05:57.643Z,38.58
2023-04-08T15:08:26.141Z,37.36
2023-04-08T15:10:55.823Z,37.56
2023-04-08T15:13:24.528Z,38.24
2023-04-08T15:15:52.870Z,40.62
2023-04-08T15:18:21.235Z,40.01
2023-04-08T15:20:49.535Z,38.71
2023-04-08T15:23:18.057Z,39.23
2023-04-08T15:25:46.450Z,38.39
2023-04-08T15:28:16.227Z,38.34
2023-04-08T15:30:45.142Z,37.41
2023-04-08T15:33:13.572Z,37.40
2023-04-08T15:35:42.089Z,38.51
2023-04-08T15:38:10.421Z,38.44
2023-04-08T15:40:38.824Z,39.05
2023-04-08T15:43:10.097Z,38.54
2023-04-08T15:45:44.423Z,37.88
2023-04-08T15:48:13.266Z,36.64
2023-04-08T15:50:42.120Z,37.71
2023-04-08T15:53:10.550Z,37.32
2023-04-08T15:55:40.034Z,38.29
2023-04-08T15:58:08.774Z,38.56
2023-04-08T16:00:37.408Z,40.16
2023-04-08T16:03:08.947Z,39.81
2023-04-08T16:05:39.721Z,40.70
2023-04-08T16:08:07.848Z,43.17
2023-04-08T16:10:36.294Z,41.85
2023-04-08T16:13:04.722Z,43.62
2023-04-08T16:15:34.097Z,44.96
2023-04-08T16:18:03.449Z,45.48
2023-04-08T16:20:33.194Z,45.82
2023-04-08T16:23:01.701Z,45.51
2023-04-08T16:25:30.062Z,45.67
2023-04-08T16:27:58.420Z,45.67
2023-04-08T16:30:26.821Z,45.74
2023-04-08T16:32:55.338Z,45.96
2023-04-08T16:35:23.723Z,46.20
2023-04-08T16:37:53.371Z,45.73
2023-04-08T16:40:21.731Z,46.22
2023-04-08T16:42:50.036Z,46.74
2023-04-08T16:45:18.465Z,46.06
2023-04-08T16:47:46.901Z,46.82
2023-04-08T16:50:15.743Z,47.20
2023-04-08T16:52:49.374Z,47.63
2023-04-08T16:55:20.045Z,48.09
2023-04-08T16:57:48.676Z,47.93
2023-04-08T17:00:20.509Z,48.07
2023-04-08T17:02:49.845Z,48.52
2023-04-08T17:05:18.602Z,48.71
2023-04-08T17:07:46.933Z,49.48
2023-04-08T17:10:15.436Z,50.36
2023-04-08T17:12:45.182Z,51.21
2023-04-08T17:15:13.800Z,51.56
2023-04-08T17:17:42.169Z,52.02
2023-04-08T17:20:12.154Z,52.21
2023-04-08T17:22:40.892Z,52.16
2023-04-08T17:25:10.660Z,52.44
2023-04-08T17:27:39.022Z,52.30
2023-04-08T17:30:11.566Z,52.51
2023-04-08T17:32:40.151Z,52.77
2023-04-08T17:35:09.694Z,52.58
2023-04-08T17:37:38.037Z,51.12
2023-04-08T17:40:08.567Z,50.83
2023-04-08T17:42:36.998Z,51.02
2023-04-08T17:45:07.145Z,51.08
2023-04-08T17:47:36.883Z,50.96
2023-04-08T17:50:06.568Z,51.60
2023-04-08T17:52:35.413Z,52.46
2023-04-08T17:55:03.867Z,51.87
2023-04-08T17:57:32.425Z,52.21
2023-04-08T18:00:01.610Z,51.78
2023-04-08T18:02:30.211Z,51.72
2023-04-08T18:05:00.807Z,50.90
2023-04-08T18:07:29.143Z,51.03
2023-04-08T18:09:57.431Z,51.09
2023-04-08T18:12:27.038Z,50.68
2023-04-08T18:14:55.418Z,51.12
2023-04-08T18:17:24.211Z,51.88
2023-04-08T18:19:52.602Z,52.10
2023-04-08T18:22:22.614Z,51.74
2023-04-08T18:24:51.004Z,52.16
2023-04-08T18:27:19.367Z,52.74
2023-04-08T18:29:47.761Z,52.64
2023-04-08T18:32:16.137Z,52.70
2023-04-08T18:34:44.410Z,52.20
2023-04-08T18:37:13.121Z,51.97
2023-04-08T18:39:42.896Z,51.92
2023-04-08T18:42:11.321Z,51.55
2023-04-08T18:44:39.675Z,50.88
2023-04-08T18:47:08.447Z,49.88
2023-04-08T18:49:38.436Z,50.00
2023-04-08T18:52:08.348Z,49.87
2023-04-08T18:54:36.764Z,49.93
2023-04-08T18:57:06.476Z,50.27
2023-04-08T18:59:35.252Z,49.70
2023-04-08T19:02:03.790Z,49.81
2023-04-08T19:04:33.396Z,49.64
2023-04-08T19:07:01.857Z,49.45
2023-04-08T19:09:30.144Z,49.53
2023-04-08T19:11:58.536Z,49.41
2023-04-08T19:14:28.622Z,49.88
2023-04-08T19:16:56.979Z,50.16
2023-04-08T19:19:25.284Z,50.18
2023-04-08T19:21:53.577Z,50.57
2023-04-08T19:24:21.901Z,50.62
2023-04-08T19:26:51.286Z,51.04
2023-04-08T19:29:22.951Z,50.98
2023-04-08T19:31:52.839Z,51.41
2023-04-08T19:34:21.160Z,51.43
2023-04-08T19:36:49.472Z,51.74
2023-04-08T19:39:18.455Z,51.70
2023-04-08T19:41:47.135Z,51.60
2023-04-08T19:44:15.625Z,51.82
2023-04-08T19:46:43.960Z,51.95
2023-04-08T19:49:13.700Z,51.88
2023-04-08T19:51:42.100Z,51.81
2023-04-08T19:54:10.355Z,52.10
2023-04-08T19:56:38.639Z,52.08
2023-04-08T19:59:06.968Z,52.23
2023-04-08T20:01:35.911Z,52.34
2023-04-08T20:04:04.626Z,52.30
2023-04-08T20:06:34.767Z,52.24
2023-04-08T20:09:05.669Z,52.42
2023-04-08T20:11:34.552Z,52.48
2023-04-08T20:14:04.318Z,52.89
2023-04-08T20:16:32.755Z,53.15
2023-04-08T20:19:01.172Z,53.47
2023-04-08T20:21:29.463Z,53.62
2023-04-08T20:23:59.092Z,53.71
2023-04-08T20:26:27.492Z,53.94
2023-04-08T20:28:58.032Z,54.31
2023-04-08T20:31:27.913Z,54.61
2023-04-08T20:33:56.239Z,55.07
2023-04-08T20:36:24.955Z,55.15
2023-04-08T20:38:53.457Z,55.10
2023-04-08T20:41:25.903Z,55.49
2023-04-08T20:43:55.104Z,55.69
2023-04-08T20:46:24.515Z,56.28
2023-04-08T20:48:53.319Z,56.76
2023-04-08T20:51:22.081Z,56.85
2023-04-08T20:53:50.803Z,57.34
2023-04-08T20:56:19.113Z,57.87
2023-04-08T20:58:48.861Z,58.23
2023-04-08T21:01:17.162Z,58.91
2023-04-08T21:03:45.555Z,59.81
2023-04-08T21:06:17.801Z,59.99
2023-04-08T21:08:46.800Z,60.52
2023-04-08T21:11:15.500Z,61.62
2023-04-08T21:13:45.518Z,62.19
2023-04-08T21:16:17.260Z,62.67
2023-04-08T21:18:45.613Z,62.71
2023-04-08T21:21:14.017Z,62.98
2023-04-08T21:23:42.333Z,62.80
2023-04-08T21:26:13.794Z,62.70
2023-04-08T21:28:42.189Z,62.95
2023-04-08T21:31:11.103Z,63.38
2023-04-08T21:33:40.937Z,63.68
2023-04-08T21:36:09.374Z,64.03
2023-04-08T21:38:37.730Z,64.53
2023-04-08T21:41:06.249Z,65.31
2023-04-08T21:43:34.625Z,65.47
2023-04-08T21:46:03.146Z,65.86
2023-04-08T21:48:31.665Z,66.58
2023-04-08T21:51:01.470Z,67.42
2023-04-08T21:53:29.875Z,67.80
2023-04-08T21:55:58.215Z,68.28
2023-04-08T21:58:28.172Z,68.49
2023-04-08T22:00:56.620Z,69.47
2023-04-08T22:03:25.041Z,69.93
2023-04-08T22:05:53.449Z,70.46
2023-04-08T22:08:23.142Z,70.74
2023-04-08T22:10:51.817Z,71.41
2023-04-08T22:13:20.656Z,72.06
2023-04-08T22:15:49.012Z,72.27
2023-04-08T22:18:17.334Z,72.45
2023-04-08T22:20:45.646Z,72.70
2023-04-08T22:23:13.949Z,73.15
2023-04-08T22:25:43.659Z,73.22
2023-04-08T22:28:13.253Z,73.37
2023-04-08T22:30:41.686Z,73.47
2023-04-08T22:33:09.995Z,73.84
2023-04-08T22:35:38.811Z,73.77
2023-04-08T22:38:07.104Z,73.91
2023-04-08T22:40:37.455Z,74.03
2023-04-08T22:43:07.144Z,74.64
2023-04-08T22:45:37.551Z,74.88
2023-04-08T22:48:06.569Z,74.83
2023-04-08T22:50:34.932Z,75.26
2023-04-08T22:53:03.762Z,75.34
2023-04-08T22:55:32.231Z,75.52
2023-04-08T22:58:00.608Z,75.98
2023-04-08T23:00:30.692Z,76.20
2023-04-08T23:03:00.647Z,76.64
2023-04-08T23:05:29.090Z,76.82
2023-04-08T23:07:57.372Z,77.09
2023-04-08T23:10:25.729Z,77.28
2023-04-08T23:12:54.092Z,77.24
2023-04-08T23:15:22.394Z,77.38
2023-04-08T23:17:52.110Z,77.78
2023-04-08T23:20:20.597Z,77.88
2023-04-08T23:22:48.986Z,78.15
2023-04-08T23:25:17.314Z,78.06
2023-04-08T23:27:46.063Z,78.70
2023-04-08T23:30:14.429Z,78.78
2023-04-08T23:32:42.856Z,79.03
2023-04-08T23:35:12.685Z,79.66
2023-04-08T23:37:40.909Z,80.15
2023-04-08T23:40:11.016Z,80.54
2023-04-08T23:42:39.356Z,80.93
2023-04-08T23:45:08.753Z,81.46
2023-04-08T23:47:37.133Z,81.63
2023-04-08T23:50:06.771Z,81.60
2023-04-08T23:52:37.380Z,81.94
2023-04-08T23:55:06.689Z,81.74
2023-04-08T23:57:35.046Z,82.14
